Time;durP1;ratioP1;P1;durP2;ratioP2;P2;SDS_P1;SDS_P2;PMS_P1;PMS_P2;Temp;Humidity;BMP_temperature;BMP_pressure;BME280_temperature;BME280_humidity;BME280_pressure;Samples;Min_cycle;Max_cycle;Signal;HPM_P1;HPM_P2
2022/07/16 00:01:23;;;;;;;4.18;2.00;;;;;;;22.85;50.21;99527.13;4992408;28;20046;-84
2022/07/16 00:03:58;;;;;;;1.90;1.42;;;;;;;22.92;50.04;99554.44;4991180;28;20030;-83
2022/07/16 00:06:26;;;;;;;2.85;1.80;;;;;;;22.77;49.97;99551.84;4991695;28;20030;-84
2022/07/16 00:08:52;;;;;;;2.95;2.38;;;;;;;22.89;50.01;99550.13;4991345;28;20489;-85
2022/07/16 00:11:18;;;;;;;2.47;1.88;;;;;;;22.92;50.44;99544.53;4990861;28;20031;-85
2022/07/16 00:13:45;;;;;;;2.67;1.75;;;;;;;23.04;50.07;99567.91;4973352;28;20053;-85
2022/07/16 00:16:11;;;;;;;8.18;2.55;;;;;;;22.86;50.12;99558.41;4972077;28;20031;-85
2022/07/16 00:21:21;;;;;;;3.25;1.98;;;;;;;22.57;51.28;99539.75;4974600;28;20049;-84
2022/07/16 00:23:47;;;;;;;2.75;2.00;;;;;;;22.70;51.76;99569.34;4991014;28;20026;-85
2022/07/16 00:26:12;;;;;;;4.00;2.42;;;;;;;22.43;52.17;99564.84;4991206;28;20100;-85
2022/07/16 00:28:38;;;;;;;2.65;1.80;;;;;;;22.40;52.08;99551.63;4991072;28;20088;-84
2022/07/16 00:31:04;;;;;;;4.35;2.13;;;;;;;22.39;52.36;99551.72;4991219;28;20035;-85
2022/07/16 00:33:29;;;;;;;5.40;2.75;;;;;;;22.22;52.86;99560.88;4991599;28;20038;-84
2022/07/16 00:35:55;;;;;;;5.30;2.22;;;;;;;22.26;53.36;99563.25;4991270;28;20026;-87
2022/07/16 00:38:21;;;;;;;4.40;2.30;;;;;;;22.25;53.35;99583.00;4992474;28;20041;-86
2022/07/16 00:40:46;;;;;;;2.45;1.83;;;;;;;22.07;54.37;99582.38;4994927;28;20113;-84
2022/07/16 00:43:13;;;;;;;3.83;2.30;;;;;;;21.88;55.21;99569.28;4994941;28;20042;-84
2022/07/16 00:45:39;;;;;;;3.17;2.15;;;;;;;21.80;55.47;99552.81;4995052;28;20464;-84
2022/07/16 00:48:06;;;;;;;3.42;2.55;;;;;;;22.04;55.08;99565.59;4994940;28;20045;-84
2022/07/16 00:50:34;;;;;;;3.78;2.47;;;;;;;21.99;55.28;99565.91;4977740;28;20570;-85
2022/07/16 00:53:01;;;;;;;5.25;2.63;;;;;;;22.15;55.39;99581.88;4995575;28;20088;-84
2022/07/16 00:55:27;;;;;;;4.35;2.42;;;;;;;21.93;55.41;99548.34;4994383;28;20036;-84
2022/07/16 00:57:54;;;;;;;3.55;1.83;;;;;;;22.02;55.51;99563.00;4994930;28;20041;-83
2022/07/16 01:00:20;;;;;;;3.35;2.22;;;;;;;22.14;55.80;99567.59;4995386;28;20555;-84
2022/07/16 01:02:45;;;;;;;3.42;1.42;;;;;;;22.18;55.92;99563.75;4994011;28;20121;-84
2022/07/16 01:05:12;;;;;;;5.38;2.08;;;;;;;22.01;56.16;99563.97;4994741;28;20554;-84
2022/07/16 01:07:37;;;;;;;3.08;1.75;;;;;;;21.77;56.28;99553.00;4994529;28;20058;-85
2022/07/16 01:10:04;;;;;;;3.83;2.80;;;;;;;21.82;55.99;99551.72;4994133;28;20081;-89
2022/07/16 01:12:30;;;;;;;5.20;2.17;;;;;;;21.61;56.99;99566.50;4994681;28;20487;-84
2022/07/16 01:14:57;;;;;;;3.38;1.95;;;;;;;21.49;57.09;99552.06;4994249;28;20040;-85
2022/07/16 01:17:22;;;;;;;3.05;2.03;;;;;;;21.60;57.23;99568.34;4993745;28;20040;-85
2022/07/16 01:19:48;;;;;;;3.33;2.17;;;;;;;21.67;56.86;99557.22;4977042;28;20125;-84
2022/07/16 01:22:21;;;;;;;3.40;2.50;;;;;;;21.39;57.01;99519.53;4993818;28;20038;-84
2022/07/16 01:24:48;;;;;;;2.70;2.00;;;;;;;21.65;57.12;99549.25;4994974;28;20117;-84
2022/07/16 01:27:14;;;;;;;4.00;1.92;;;;;;;21.55;56.69;99535.56;4994112;28;20034;-85
2022/07/16 01:29:39;;;;;;;2.92;1.88;;;;;;;21.70;57.41;99557.88;4993721;28;20026;-85
2022/07/16 01:32:05;;;;;;;2.95;1.88;;;;;;;21.59;57.52;99545.13;4994195;28;20507;-85
2022/07/16 01:34:31;;;;;;;3.58;2.45;;;;;;;21.68;57.69;99559.81;4993886;28;20050;-85
2022/07/16 01:37:03;;;;;;;4.45;2.35;;;;;;;21.72;57.86;99557.78;4993887;28;20034;-85
2022/07/16 01:39:31;;;;;;;4.43;2.10;;;;;;;21.63;57.80;99541.31;4994169;28;20081;-84
2022/07/16 01:41:59;;;;;;;5.28;2.22;;;;;;;21.55;58.16;99532.00;4993559;28;20053;-84
2022/07/16 01:44:26;;;;;;;3.33;2.50;;;;;;;21.52;58.49;99546.50;4993999;28;20481;-84
2022/07/16 01:46:54;;;;;;;2.63;1.83;;;;;;;21.51;58.92;99551.97;4994467;28;20026;-84
2022/07/16 01:49:20;;;;;;;4.32;2.30;;;;;;;21.39;58.78;99540.13;4992372;28;20027;-84
2022/07/16 01:51:45;;;;;;;3.08;1.98;;;;;;;21.13;59.30;99531.00;4993588;28;20065;-85
2022/07/16 01:54:11;;;;;;;3.15;2.10;;;;;;;21.39;58.86;99566.97;4993449;28;20535;-84
2022/07/16 01:56:37;;;;;;;5.15;3.10;;;;;;;21.52;58.66;99557.22;4993731;28;20038;-85
2022/07/16 01:59:03;;;;;;;3.72;2.28;;;;;;;21.40;59.13;99545.41;4993895;28;20481;-84
2022/07/16 02:01:29;;;;;;;5.00;2.65;;;;;;;21.35;59.29;99531.41;4993910;28;20072;-84
2022/07/16 02:03:54;;;;;;;3.28;2.28;;;;;;;21.27;59.89;99549.78;4993597;28;20042;-85
2022/07/16 02:06:20;;;;;;;5.13;2.08;;;;;;;21.21;60.12;99551.06;4993542;28;20492;-86
2022/07/16 02:08:46;;;;;;;2.08;1.58;;;;;;;21.19;60.40;99561.00;4993789;28;20037;-85
2022/07/16 02:11:12;;;;;;;3.72;2.17;;;;;;;21.17;60.50;99560.22;4993269;28;20791;-85
2022/07/16 02:13:37;;;;;;;2.63;1.85;;;;;;;21.12;60.58;99565.03;4992386;28;20035;-84
2022/07/16 02:16:03;;;;;;;4.38;2.90;;;;;;;21.23;60.57;99572.41;4994267;28;20038;-84
2022/07/16 02:18:28;;;;;;;2.25;1.67;;;;;;;21.11;60.54;99563.28;4993037;28;20511;-84
2022/07/16 02:20:54;;;;;;;5.60;2.95;;;;;;;21.23;59.94;99583.13;4992873;28;20026;-84
2022/07/16 02:23:20;;;;;;;2.72;1.75;;;;;;;21.08;59.46;99536.66;4993094;28;20030;-85
2022/07/16 02:25:45;;;;;;;4.60;1.95;;;;;;;21.05;59.88;99564.53;4994195;28;20026;-84
2022/07/16 02:28:11;;;;;;;5.97;2.45;;;;;;;20.84;60.52;99572.03;4993199;28;20034;-84
2022/07/16 02:30:45;;;;;;;5.05;2.38;;;;;;;20.50;60.67;99533.81;4992620;28;20456;-83
2022/07/16 02:33:12;;;;;;;2.70;2.15;;;;;;;20.64;61.03;99548.22;4993147;28;20050;-83
2022/07/16 02:35:38;;;;;;;3.05;1.83;;;;;;;20.79;61.03;99578.63;4992579;28;20026;-84
2022/07/16 02:38:06;;;;;;;3.10;2.30;;;;;;;20.80;61.47;99577.69;4993761;28;20030;-84
2022/07/16 02:40:33;;;;;;;6.78;2.83;;;;;;;20.81;60.79;99569.53;4992711;28;20534;-83
2022/07/16 02:43:00;;;;;;;4.18;2.85;;;;;;;20.81;61.24;99593.66;4992574;28;20121;-83
2022/07/16 02:45:25;;;;;;;4.30;2.45;;;;;;;20.75;61.51;99576.13;4992894;28;20488;-84
2022/07/16 02:47:51;;;;;;;3.42;2.55;;;;;;;20.61;61.32;99551.94;4993154;28;20073;-84
2022/07/16 02:50:17;;;;;;;3.15;2.08;;;;;;;20.67;61.75;99573.03;4991841;28;20042;-85
2022/07/16 02:52:42;;;;;;;4.63;2.33;;;;;;;20.77;61.61;99569.81;4992293;28;20034;-84
2022/07/16 02:55:08;;;;;;;3.72;2.33;;;;;;;20.71;61.69;99581.75;4992504;28;20472;-85
2022/07/16 02:57:34;;;;;;;4.80;3.20;;;;;;;20.64;61.65;99556.25;4992643;28;20035;-83
2022/07/16 02:59:59;;;;;;;3.20;2.42;;;;;;;20.75;61.48;99586.84;4988835;28;20401;-84
2022/07/16 03:02:25;;;;;;;5.65;2.08;;;;;;;20.67;61.52;99569.50;4973398;28;20431;-84
2022/07/16 03:04:51;;;;;;;3.58;2.45;;;;;;;20.55;61.32;99553.13;4987438;28;20038;-84
2022/07/16 03:07:16;;;;;;;4.70;2.58;;;;;;;20.75;61.19;99575.28;4992387;28;20574;-83
2022/07/16 03:09:42;;;;;;;4.63;3.03;;;;;;;20.99;61.12;99589.03;4974690;28;20068;-87
2022/07/16 03:12:07;;;;;;;4.90;3.03;;;;;;;20.80;61.52;99580.34;4992197;28;20026;-84
2022/07/16 03:14:33;;;;;;;4.13;2.42;;;;;;;20.66;61.94;99567.78;4992619;28;20088;-83
2022/07/16 03:16:58;;;;;;;4.15;2.58;;;;;;;20.60;62.04;99578.81;4991805;28;20089;-83
2022/07/16 03:19:24;;;;;;;4.30;2.55;;;;;;;20.68;61.82;99580.13;4992437;28;20026;-82
2022/07/16 03:21:49;;;;;;;2.15;1.88;;;;;;;20.60;62.37;99595.75;4992514;28;20528;-82
2022/07/16 03:24:16;;;;;;;6.65;2.90;;;;;;;20.59;62.36;99580.66;4992192;28;20449;-82
2022/07/16 03:26:41;;;;;;;4.95;2.20;;;;;;;20.32;63.30;99585.78;4992324;28;20493;-82
2022/07/16 03:29:07;;;;;;;2.47;2.22;;;;;;;20.58;63.05;99605.69;4991989;28;20084;-82
2022/07/16 03:31:32;;;;;;;4.57;3.40;;;;;;;20.57;63.12;99599.50;4973268;28;20539;-82
2022/07/16 03:33:58;;;;;;;4.43;2.53;;;;;;;20.47;62.44;99592.06;4991089;28;20137;-83
2022/07/16 03:36:26;;;;;;;2.67;1.83;;;;;;;20.64;61.64;99599.97;4991700;28;20041;-83
2022/07/16 03:39:07;;;;;;;2.95;1.80;;;;;;;20.62;61.57;99606.38;4991505;28;20066;-82
2022/07/16 03:41:34;;;;;;;4.00;2.33;;;;;;;20.70;61.68;99598.81;4991540;28;20563;-82
2022/07/16 03:44:01;;;;;;;2.47;2.05;;;;;;;20.75;61.62;99594.03;4991954;28;20481;-82
2022/07/16 03:46:27;;;;;;;5.03;2.75;;;;;;;20.95;61.79;99600.03;4991479;28;20074;-83
2022/07/16 03:48:53;;;;;;;3.03;2.10;;;;;;;20.83;61.61;99578.34;4991361;28;20058;-82
2022/07/16 03:51:18;;;;;;;5.18;3.40;;;;;;;20.99;61.72;99582.78;4990670;28;20084;-83
2022/07/16 03:53:44;;;;;;;2.13;1.80;;;;;;;21.19;61.13;99590.50;4991689;28;20034;-83
2022/07/16 03:56:10;;;;;;;2.50;1.85;;;;;;;21.33;61.55;99588.78;4991520;28;20037;-83
2022/07/16 03:58:35;;;;;;;4.18;1.90;;;;;;;21.51;61.86;99597.56;4992066;28;20401;-83
2022/07/16 04:01:01;;;;;;;3.85;2.17;;;;;;;21.63;61.50;99597.66;4991377;28;20030;-83
2022/07/16 04:03:26;;;;;;;3.15;2.20;;;;;;;21.85;61.37;99616.94;4990765;28;20038;-83
2022/07/16 04:05:52;;;;;;;3.60;2.10;;;;;;;22.01;60.19;99609.63;4991298;28;20041;-83
2022/07/16 04:08:18;;;;;;;4.47;2.17;;;;;;;22.02;59.04;99595.25;4991572;28;20165;-83
2022/07/16 04:10:43;;;;;;;3.08;1.92;;;;;;;22.34;58.48;99606.63;4991650;28;20041;-83
2022/07/16 04:13:09;;;;;;;2.50;1.85;;;;;;;22.51;58.66;99610.88;4992565;28;20088;-83
2022/07/16 04:15:35;;;;;;;5.55;2.85;;;;;;;22.60;56.90;99604.06;4995489;28;20045;-83
2022/07/16 04:18:00;;;;;;;3.15;2.25;;;;;;;22.86;55.59;99606.81;4995826;28;20489;-84
2022/07/16 04:20:26;;;;;;;3.38;2.40;;;;;;;23.05;54.58;99617.19;4995371;28;20034;-83
2022/07/16 04:22:51;;;;;;;4.05;2.80;;;;;;;22.92;53.95;99601.00;4995494;28;20098;-83
2022/07/16 04:25:19;;;;;;;4.18;2.17;;;;;;;23.06;53.22;99617.09;4995585;28;20049;-87
2022/07/16 04:27:45;;;;;;;3.90;2.45;;;;;;;23.23;52.67;99625.84;4995334;28;20061;-84
2022/07/16 04:30:11;;;;;;;4.88;2.22;;;;;;;23.46;53.41;99632.31;4994819;28;20484;-82
2022/07/16 04:32:38;;;;;;;2.60;1.98;;;;;;;23.57;52.94;99642.34;4994549;28;20122;-83
2022/07/16 04:35:05;;;;;;;3.22;2.42;;;;;;;23.51;52.61;99626.63;4994821;28;20069;-82
2022/07/16 04:37:31;;;;;;;4.40;3.00;;;;;;;23.87;52.02;99643.91;4995438;28;20022;-83
2022/07/16 04:39:56;;;;;;;22.90;9.38;;;;;;;23.84;52.41;99644.09;4994828;28;20037;-82
2022/07/16 04:42:22;;;;;;;18.92;9.55;;;;;;;23.87;52.56;99647.44;4994733;28;20460;-82
2022/07/16 04:44:47;;;;;;;11.60;6.10;;;;;;;23.76;51.73;99653.56;4995038;28;20500;-82
2022/07/16 04:47:13;;;;;;;21.10;10.40;;;;;;;23.77;51.93;99638.25;4995096;28;20089;-82
2022/07/16 04:49:38;;;;;;;27.67;16.67;;;;;;;23.86;51.45;99658.31;4994278;28;20054;-82
2022/07/16 04:52:04;;;;;;;7.05;5.45;;;;;;;23.98;50.81;99638.59;4994992;28;20030;-84
2022/07/16 04:54:30;;;;;;;23.90;10.02;;;;;;;23.87;52.09;99662.75;4995088;28;20092;-84
2022/07/16 04:56:56;;;;;;;14.55;4.72;;;;;;;23.55;51.37;99642.44;4995577;28;20467;-87
2022/07/16 04:59:21;;;;;;;5.97;3.30;;;;;;;23.61;51.75;99641.19;4994444;28;20038;-84
2022/07/16 05:01:47;;;;;;;4.38;2.00;;;;;;;24.08;50.00;99625.31;4994657;28;20026;-84
2022/07/16 05:04:12;;;;;;;4.03;1.98;;;;;;;24.42;50.30;99630.94;4977479;28;20053;-84
2022/07/16 05:06:38;;;;;;;3.42;2.92;;;;;;;24.65;50.03;99661.63;4994547;28;20062;-84
2022/07/16 05:09:04;;;;;;;5.53;3.03;;;;;;;24.70;48.42;99634.31;4994662;28;20030;-84
2022/07/16 05:11:30;;;;;;;4.90;2.53;;;;;;;24.81;47.97;99646.03;4994390;28;20030;-85
2022/07/16 05:13:56;;;;;;;5.15;2.55;;;;;;;24.70;49.03;99654.06;4994310;28;20125;-84
2022/07/16 05:16:23;;;;;;;4.82;3.00;;;;;;;24.90;49.26;99631.00;4994704;28;20030;-84
2022/07/16 05:18:49;;;;;;;2.55;1.98;;;;;;;24.55;47.28;99637.16;4976408;28;20049;-84
2022/07/16 05:21:15;;;;;;;5.35;2.22;;;;;;;24.92;47.88;99647.91;4993896;28;20037;-84
2022/07/16 05:23:41;;;;;;;5.85;3.10;;;;;;;24.90;48.78;99647.19;4994084;28;20419;-83
2022/07/16 05:26:07;;;;;;;7.22;2.85;;;;;;;24.90;48.86;99638.19;4993221;28;20424;-84
2022/07/16 05:28:32;;;;;;;7.35;3.70;;;;;;;25.14;48.66;99633.63;4994442;28;20035;-82
2022/07/16 05:30:58;;;;;;;6.78;3.60;;;;;;;25.63;47.57;99638.94;4977129;28;20033;-83
2022/07/16 05:33:23;;;;;;;4.65;2.20;;;;;;;25.28;47.35;99639.81;4993861;28;20057;-83
2022/07/16 05:35:49;;;;;;;3.95;2.38;;;;;;;25.49;47.34;99649.00;4993871;28;20481;-84
2022/07/16 05:38:15;;;;;;;10.27;2.33;;;;;;;25.95;46.78;99647.19;4993775;28;20039;-84
2022/07/16 05:40:40;;;;;;;2.13;1.80;;;;;;;25.60;46.23;99637.34;4993794;28;20026;-83
2022/07/16 05:43:07;;;;;;;3.35;2.08;;;;;;;25.69;46.52;99660.06;4994030;28;20022;-84
2022/07/16 05:45:32;;;;;;;1.85;1.50;;;;;;;26.21;45.88;99634.31;4994178;28;20034;-86
2022/07/16 05:47:58;;;;;;;3.97;2.47;;;;;;;26.49;44.83;99648.25;4993187;28;20406;-84
2022/07/16 05:50:24;;;;;;;4.55;1.95;;;;;;;26.97;44.73;99656.03;4993488;28;20031;-85
2022/07/16 05:52:49;;;;;;;3.53;2.00;;;;;;;26.71;43.63;99655.50;4993097;28;20460;-82
2022/07/16 05:55:15;;;;;;;2.63;1.77;;;;;;;27.17;43.31;99648.03;4993763;28;20405;-84
2022/07/16 05:57:41;;;;;;;9.27;3.22;;;;;;;26.98;43.63;99649.59;4993604;28;20119;-82
2022/07/16 06:00:10;;;;;;;5.07;3.55;;;;;;;26.95;43.36;99641.75;4993807;28;20022;-82
2022/07/16 06:02:36;;;;;;;5.57;2.95;;;;;;;26.90;42.64;99654.81;4992958;28;20828;-84
2022/07/16 06:05:01;;;;;;;3.58;2.53;;;;;;;27.55;42.74;99638.50;4988925;28;20034;-84
2022/07/16 06:07:27;;;;;;;6.82;3.88;;;;;;;28.09;41.62;99646.53;4979153;28;20038;-83
2022/07/16 06:09:52;;;;;;;4.88;2.53;;;;;;;28.16;42.21;99645.84;4975645;28;20030;-84
2022/07/16 06:12:18;;;;;;;3.65;2.15;;;;;;;28.32;40.99;99623.59;4975808;28;20093;-83
2022/07/16 06:14:43;;;;;;;2.92;2.38;;;;;;;28.17;41.49;99617.72;4976252;28;20038;-83
2022/07/16 06:17:09;;;;;;;4.20;2.65;;;;;;;28.50;40.74;99644.63;4971673;28;20488;-83
2022/07/16 06:19:34;;;;;;;5.72;2.65;;;;;;;29.05;40.55;99615.13;4986329;28;20034;-84
2022/07/16 06:22:00;;;;;;;3.50;2.05;;;;;;;28.91;40.01;99618.28;4989456;28;20088;-84
2022/07/16 06:24:26;;;;;;;3.60;2.00;;;;;;;29.34;40.56;99621.59;4991659;28;20527;-84
2022/07/16 06:26:52;;;;;;;6.75;2.78;;;;;;;29.93;39.27;99601.38;4993231;28;20039;-84
2022/07/16 06:29:18;;;;;;;4.78;2.90;;;;;;;30.90;38.08;99623.59;4974640;28;20421;-84
2022/07/16 06:31:44;;;;;;;2.55;1.70;;;;;;;30.83;35.98;99615.19;4989082;28;20037;-83
2022/07/16 06:34:11;;;;;;;2.03;1.48;;;;;;;30.29;35.48;99592.47;4988061;28;20061;-85
2022/07/16 06:36:36;;;;;;;2.70;1.63;;;;;;;30.86;38.00;99606.72;4975906;28;20022;-84
2022/07/16 06:39:03;;;;;;;2.53;1.70;;;;;;;30.61;36.67;99613.75;4972138;28;20477;-86
2022/07/16 06:41:29;;;;;;;6.57;2.40;;;;;;;30.94;35.74;99597.75;4989252;28;20065;-85
2022/07/16 06:43:55;;;;;;;3.55;2.53;;;;;;;30.91;36.34;99613.53;4991025;28;20042;-86
2022/07/16 06:46:20;;;;;;;1.65;1.23;;;;;;;31.00;36.92;99612.63;4992349;28;20161;-85
2022/07/16 06:48:46;;;;;;;2.15;1.45;;;;;;;30.93;34.58;99606.09;4993144;28;20416;-85
2022/07/16 06:51:34;;;;;;;4.28;1.95;;;;;;;30.78;35.89;99612.06;4992481;28;20070;-87
2022/07/16 06:54:00;;;;;;;4.10;1.85;;;;;;;31.14;35.23;99592.16;4993338;28;20030;-87
2022/07/16 06:56:26;;;;;;;4.43;1.55;;;;;;;31.38;34.20;99595.03;4992960;28;20075;-89
2022/07/16 06:58:51;;;;;;;4.20;1.50;;;;;;;31.55;33.35;99606.09;4983098;28;20046;-87
2022/07/16 07:01:17;;;;;;;4.28;1.70;;;;;;;31.67;34.46;99584.84;4989085;28;20419;-87
2022/07/16 07:03:43;;;;;;;2.67;1.48;;;;;;;31.97;34.29;99582.63;4975593;28;20050;-87
2022/07/16 07:06:09;;;;;;;1.60;1.02;;;;;;;31.88;32.74;99604.38;4992859;28;20555;-87
2022/07/16 07:08:34;;;;;;;1.50;1.10;;;;;;;32.10;32.71;99593.94;4992206;28;20026;-87
2022/07/16 07:11:00;;;;;;;2.05;1.75;;;;;;;32.54;32.78;99599.19;4993182;28;20129;-87
2022/07/16 07:13:27;;;;;;;1.70;1.30;;;;;;;33.00;30.88;99590.59;4993222;28;20026;-87
2022/07/16 07:15:52;;;;;;;1.65;1.02;;;;;;;33.09;31.64;99580.47;4993012;28;20038;-87
2022/07/16 07:18:18;;;;;;;5.70;2.50;;;;;;;33.19;29.71;99586.66;4992590;28;20093;-87
2022/07/16 07:20:43;;;;;;;1.63;1.10;;;;;;;33.32;31.02;99567.88;4992753;28;20037;-87
2022/07/16 07:23:10;;;;;;;1.88;1.20;;;;;;;33.17;29.52;99584.06;4991847;28;20512;-88
2022/07/16 07:25:36;;;;;;;1.73;1.08;;;;;;;33.21;28.79;99578.28;4992224;28;20113;-86
2022/07/16 07:28:01;;;;;;;1.60;1.15;;;;;;;33.70;31.23;99575.47;4992399;28;20083;-87
2022/07/16 07:30:27;;;;;;;1.92;0.75;;;;;;;34.00;30.66;99583.91;4992646;28;20037;-87
2022/07/16 07:32:52;;;;;;;2.38;1.65;;;;;;;34.00;29.69;99570.22;4992226;28;20054;-87
2022/07/16 07:35:18;;;;;;;1.48;1.15;;;;;;;33.59;27.52;99567.66;4991961;28;20540;-87
2022/07/16 07:37:43;;;;;;;1.83;1.05;;;;;;;33.71;27.71;99585.38;4992004;28;20096;-87
2022/07/16 07:40:09;;;;;;;1.60;1.20;;;;;;;34.19;27.07;99569.81;4991946;28;20026;-86
2022/07/16 07:42:35;;;;;;;1.65;1.23;;;;;;;34.66;26.95;99565.25;4992329;28;20038;-87
2022/07/16 07:45:00;;;;;;;1.50;1.00;;;;;;;34.88;28.70;99571.81;4974822;28;20030;-88
2022/07/16 07:47:27;;;;;;;2.25;1.08;;;;;;;34.40;25.71;99591.13;4991037;28;20132;-88
2022/07/16 07:49:53;;;;;;;3.15;1.38;;;;;;;34.57;25.64;99594.59;4991832;28;20520;-87
2022/07/16 07:52:18;;;;;;;2.65;1.40;;;;;;;34.27;27.61;99574.41;4991717;28;20022;-87
2022/07/16 07:54:44;;;;;;;2.15;1.15;;;;;;;34.24;25.68;99566.56;4991828;28;20129;-86
2022/07/16 07:57:09;;;;;;;2.35;1.20;;;;;;;33.89;26.46;99569.63;4974046;28;20038;-87
2022/07/16 07:59:35;;;;;;;1.10;0.75;;;;;;;33.97;26.31;99570.59;4991654;28;20093;-88
2022/07/16 08:02:00;;;;;;;1.85;0.80;;;;;;;33.94;26.11;99579.16;4974244;28;20134;-90
2022/07/16 08:04:26;;;;;;;11.63;1.25;;;;;;;33.99;28.26;99580.34;4991322;28;20093;-90
2022/07/16 08:06:51;;;;;;;0.85;0.85;;;;;;;34.24;26.33;99585.72;4974307;28;20472;-88
2022/07/16 08:09:17;;;;;;;1.98;1.50;;;;;;;34.73;27.71;99576.34;4992182;28;20081;-84
2022/07/16 08:11:42;;;;;;;1.83;1.20;;;;;;;34.95;25.17;99583.72;4991953;28;20500;-87
2022/07/16 08:14:09;;;;;;;2.65;1.85;;;;;;;34.84;24.90;99569.63;4974190;28;20050;-87
2022/07/16 08:16:34;;;;;;;3.03;1.17;;;;;;;35.15;25.54;99575.84;4992267;28;20034;-86
2022/07/16 08:19:00;;;;;;;0.95;0.80;;;;;;;35.00;25.00;99588.66;4991862;28;20065;-86
2022/07/16 08:21:27;;;;;;;2.10;0.95;;;;;;;34.92;24.83;99548.47;4992160;28;20030;-88
2022/07/16 08:26:37;;;;;;;0.93;0.70;;;;;;;35.14;26.68;99565.94;4991505;28;20042;-86
2022/07/16 08:29:03;;;;;;;1.17;1.00;;;;;;;35.14;25.67;99556.84;4991831;28;20039;-88
2022/07/16 08:31:28;;;;;;;0.88;0.82;;;;;;;35.45;26.48;99558.63;4988973;28;20026;-91
2022/07/16 08:33:54;;;;;;;0.57;0.55;;;;;;;35.41;24.30;99554.56;4981209;28;20050;-92
2022/07/16 08:36:20;;;;;;;7.10;0.93;;;;;;;35.48;24.24;99539.91;4972303;28;20042;-86
2022/07/16 08:38:46;;;;;;;1.42;1.00;;;;;;;35.44;24.01;99548.69;4971980;28;20027;-85
2022/07/16 08:41:12;;;;;;;1.30;0.73;;;;;;;35.37;23.55;99562.28;4971502;28;20070;-86
2022/07/16 08:43:38;;;;;;;0.98;0.82;;;;;;;35.23;24.62;99547.50;4990766;28;20041;-85
2022/07/16 08:46:03;;;;;;;1.08;1.00;;;;;;;35.12;23.75;99558.91;4990845;28;20034;-89
2022/07/16 08:48:31;;;;;;;1.23;0.90;;;;;;;35.75;26.28;99567.69;4990344;28;20026;-85
2022/07/16 08:51:00;;;;;;;2.78;1.50;;;;;;;35.66;24.08;99566.94;4990987;28;20026;-83
2022/07/16 08:53:27;;;;;;;1.60;1.10;;;;;;;35.73;23.26;99561.56;4973323;28;20042;-86
2022/07/16 08:55:54;;;;;;;2.15;1.00;;;;;;;35.73;22.45;99549.72;4988958;28;20038;-85
2022/07/16 08:58:19;;;;;;;2.08;1.55;;;;;;;35.64;24.39;99557.22;4991029;28;20030;-84
2022/07/16 09:00:45;;;;;;;1.63;0.98;;;;;;;35.66;23.22;99539.50;4994259;28;20081;-86
2022/07/16 09:03:15;;;;;;;1.05;0.80;;;;;;;35.91;23.55;99552.13;4994523;28;20041;-90
2022/07/16 09:05:41;;;;;;;2.03;1.20;;;;;;;36.52;24.65;99536.16;4994626;28;20408;-87
2022/07/16 09:08:07;;;;;;;1.65;1.10;;;;;;;36.86;23.51;99555.75;4994598;28;20042;-86
2022/07/16 09:10:35;;;;;;;1.75;0.98;;;;;;;36.34;22.11;99554.97;4994757;28;20500;-86
2022/07/16 09:13:00;;;;;;;1.30;0.90;;;;;;;36.19;23.72;99550.38;4994317;28;20036;-87
2022/07/16 09:15:40;;;;;;;1.45;1.08;;;;;;;36.27;25.52;99554.91;4994130;28;20397;-86
2022/07/16 09:18:11;;;;;;;1.65;1.23;;;;;;;36.48;24.40;99551.31;4994410;28;20033;-91
2022/07/16 09:20:39;;;;;;;3.08;1.40;;;;;;;36.68;23.21;99559.78;4994243;28;20034;-85
2022/07/16 09:23:17;;;;;;;1.88;1.10;;;;;;;36.79;23.49;99547.44;4994386;28;20027;-86
2022/07/16 09:25:47;;;;;;;1.70;1.10;;;;;;;36.87;26.10;99536.31;4994277;28;20026;-90
2022/07/16 09:28:13;;;;;;;1.70;1.10;;;;;;;37.02;25.01;99554.63;4994106;28;20113;-84
2022/07/16 09:30:38;;;;;;;4.22;2.00;;;;;;;37.18;22.60;99526.81;4994140;28;20113;-86
2022/07/16 09:33:13;;;;;;;1.88;1.20;;;;;;;37.24;22.06;99544.44;4994026;28;20038;-85
2022/07/16 09:35:40;;;;;;;1.33;1.17;;;;;;;37.19;21.46;99549.69;4994260;28;20030;-83
2022/07/16 09:38:09;;;;;;;2.13;1.17;;;;;;;36.96;20.92;99552.66;4994088;28;20027;-84
2022/07/16 09:40:37;;;;;;;1.55;1.17;;;;;;;37.23;23.77;99535.34;4994151;28;20091;-87
2022/07/16 09:43:23;;;;;;;1.02;0.70;;;;;;;37.60;23.26;99540.66;4993805;28;20504;-85
2022/07/16 09:45:57;;;;;;;1.67;0.98;;;;;;;37.10;23.63;99530.56;4993305;28;20065;-86
2022/07/16 09:48:25;;;;;;;1.50;1.00;;;;;;;37.37;23.54;99540.94;4993639;28;20038;-85
2022/07/16 09:50:52;;;;;;;1.73;1.15;;;;;;;37.43;21.50;99537.38;4993988;28;20038;-86
2022/07/16 09:53:21;;;;;;;2.78;1.38;;;;;;;37.18;20.84;99537.81;4994619;28;20030;-84
2022/07/16 09:56:05;;;;;;;1.48;1.08;;;;;;;37.47;22.66;99543.34;4994750;28;20026;-85
2022/07/16 09:58:32;;;;;;;1.35;1.00;;;;;;;37.79;21.34;99539.94;4993776;28;20096;-86
2022/07/16 10:00:59;;;;;;;1.35;1.10;;;;;;;37.53;21.27;99542.53;4993651;28;20137;-86
2022/07/16 10:03:26;;;;;;;2.13;1.35;;;;;;;38.02;21.11;99522.25;4990003;28;20038;-86
2022/07/16 10:05:51;;;;;;;2.33;1.33;;;;;;;38.47;20.40;99541.91;4994512;28;20057;-86
2022/07/16 10:08:18;;;;;;;1.27;1.00;;;;;;;37.93;21.12;99531.75;4994052;28;20034;-86
2022/07/16 10:10:44;;;;;;;4.18;1.58;;;;;;;37.64;23.52;99525.44;4989525;28;20623;-86
2022/07/16 10:13:11;;;;;;;1.60;1.15;;;;;;;38.23;20.25;99518.53;4990441;28;20088;-88
2022/07/16 10:15:37;;;;;;;1.30;1.15;;;;;;;38.37;20.36;99518.56;4993576;28;20030;-84
2022/07/16 10:18:23;;;;;;;1.73;1.15;;;;;;;38.74;19.85;99511.63;4992919;28;20516;-86
2022/07/16 10:21:04;;;;;;;1.10;0.98;;;;;;;39.54;21.50;99506.09;4993464;28;20022;-87
2022/07/16 10:23:31;;;;;;;2.67;1.27;;;;;;;39.48;18.77;99512.44;4993452;28;20030;-86
2022/07/16 10:26:03;;;;;;;1.02;0.95;;;;;;;39.73;19.28;99514.50;4992838;28;20045;-85
2022/07/16 10:28:46;;;;;;;4.13;1.30;;;;;;;38.89;19.00;99488.56;4993038;28;20031;-86
2022/07/16 10:31:33;;;;;;;1.65;1.23;;;;;;;39.18;20.73;99515.69;4993660;28;20112;-86
2022/07/16 10:34:14;;;;;;;2.65;1.58;;;;;;;39.83;18.50;99511.31;4992850;28;20536;-87
2022/07/16 10:36:46;;;;;;;2.10;1.40;;;;;;;40.07;18.54;99507.81;4993307;28;20034;-86
2022/07/16 10:39:15;;;;;;;1.38;1.23;;;;;;;39.24;18.41;99502.97;4992787;28;20026;-83
2022/07/16 10:41:58;;;;;;;1.83;1.08;;;;;;;38.37;19.48;99500.13;4993925;28;20030;-87
2022/07/16 10:44:44;;;;;;;2.90;1.48;;;;;;;37.91;20.17;99482.41;4993140;28;20038;-86
2022/07/16 10:47:15;;;;;;;1.48;1.15;;;;;;;38.64;19.90;99502.97;4994453;28;20089;-86
2022/07/16 10:49:41;;;;;;;2.03;1.50;;;;;;;38.96;19.93;99497.66;4993976;28;20046;-86
2022/07/16 10:52:18;;;;;;;1.25;0.90;;;;;;;38.24;19.36;99487.19;4993731;28;20026;-85
2022/07/16 10:54:49;;;;;;;2.53;1.30;;;;;;;38.59;19.95;99494.44;4988470;28;20030;-87
2022/07/16 10:57:16;;;;;;;1.35;1.10;;;;;;;38.67;19.89;99473.06;4988009;28;20113;-86
2022/07/16 10:59:47;;;;;;;0.82;0.80;;;;;;;38.58;20.52;99466.03;4981927;28;20030;-85
2022/07/16 11:02:16;;;;;;;2.58;2.15;;;;;;;38.64;20.22;99462.47;4993602;28;20034;-88
2022/07/16 11:04:47;;;;;;;2.78;1.45;;;;;;;38.16;22.35;99473.59;4993657;28;20056;-86
2022/07/16 11:07:16;;;;;;;1.15;1.05;;;;;;;38.56;19.50;99453.53;4993898;28;20031;-86
2022/07/16 11:09:44;;;;;;;2.40;1.38;;;;;;;38.54;23.21;99474.94;4993301;28;20105;-86
2022/07/16 11:12:14;;;;;;;1.70;1.30;;;;;;;39.20;21.37;99463.91;4993380;28;20031;-86
2022/07/16 11:14:41;;;;;;;1.67;1.20;;;;;;;39.29;19.71;99460.94;4993040;28;20038;-86
2022/07/16 11:17:10;;;;;;;1.92;1.17;;;;;;;39.70;19.53;99457.00;4993399;28;20034;-87
2022/07/16 11:19:44;;;;;;;1.98;1.27;;;;;;;39.50;23.76;99454.28;4992945;28;20025;-85
2022/07/16 11:22:29;;;;;;;2.55;1.42;;;;;;;39.14;25.72;99439.97;4993696;28;20547;-87
2022/07/16 11:25:06;;;;;;;1.38;1.13;;;;;;;39.20;23.77;99458.41;4975018;28;20034;-87
2022/07/16 11:27:37;;;;;;;3.60;1.48;;;;;;;39.55;19.27;99471.06;4993349;28;20034;-85
2022/07/16 11:30:08;;;;;;;2.10;1.33;;;;;;;38.93;19.52;99460.34;4992549;28;20018;-86
2022/07/16 11:32:44;;;;;;;1.88;1.23;;;;;;;37.96;21.94;99460.63;4992324;28;20048;-88
2022/07/16 11:35:10;;;;;;;1.90;1.40;;;;;;;37.96;21.60;99470.78;4975619;28;20067;-86
2022/07/16 11:37:57;;;;;;;1.75;1.45;;;;;;;37.77;20.25;99447.63;4993343;28;20023;-86
2022/07/16 11:40:33;;;;;;;2.53;1.27;;;;;;;38.48;20.15;99458.22;4993188;28;20093;-86